Time;durP1;ratioP1;P1;durP2;ratioP2;P2;SDS_P1;SDS_P2;PMS_P1;PMS_P2;Temp;Humidity;BMP_temperature;BMP_pressure;BME280_temperature;BME280_humidity;BME280_pressure;Samples;Min_cycle;Max_cycle;Signal;HPM_P1;HPM_P2
2022/01/03 00:01:48;;;;;;;16.23;4.25;;;;;;;10.37;100.00;100976.25;5018511;28;20284;-72
2022/01/03 00:04:15;;;;;;;26.30;4.28;;;;;;;10.27;100.00;100982.69;5036802;28;20062;-73
2022/01/03 00:06:41;;;;;;;18.10;4.13;;;;;;;10.28;100.00;100981.56;5035258;28;20773;-71
2022/01/03 00:09:08;;;;;;;23.35;3.97;;;;;;;10.41;100.00;100980.81;5037631;28;20036;-72
2022/01/03 00:11:35;;;;;;;24.70;5.00;;;;;;;10.35;100.00;100984.69;5036976;28;20045;-73
2022/01/03 00:14:02;;;;;;;25.77;4.20;;;;;;;10.32;100.00;100996.19;5035301;28;20066;-72
2022/01/03 00:16:29;;;;;;;23.48;3.75;;;;;;;10.31;100.00;100994.59;5035546;28;20056;-72
2022/01/03 00:18:54;;;;;;;23.25;4.13;;;;;;;10.38;100.00;100991.47;5037185;28;20053;-73
2022/01/03 00:21:25;;;;;;;20.02;4.45;;;;;;;10.34;100.00;100995.91;5037197;28;20067;-72
2022/01/03 00:24:06;;;;;;;32.38;4.88;;;;;;;10.32;100.00;101003.56;5037738;28;20052;-72
2022/01/03 00:26:34;;;;;;;22.40;4.90;;;;;;;10.26;100.00;100999.28;5038469;28;20144;-73
2022/01/03 00:29:04;;;;;;;28.60;5.18;;;;;;;10.30;100.00;100998.44;5037366;28;20485;-72
2022/01/03 00:31:37;;;;;;;28.65;5.35;;;;;;;10.26;100.00;101000.09;5036988;28;20572;-73
2022/01/03 00:34:05;;;;;;;32.38;5.15;;;;;;;10.35;100.00;101001.06;5037397;28;20079;-73
2022/01/03 00:36:31;;;;;;;37.42;5.78;;;;;;;10.34;100.00;101012.28;5035950;28;20041;-72
2022/01/03 00:38:57;;;;;;;21.98;5.03;;;;;;;10.31;100.00;101008.22;5037517;28;20056;-72
2022/01/03 00:41:22;;;;;;;28.48;4.93;;;;;;;10.34;100.00;101004.09;5036831;28;20025;-72
2022/01/03 00:43:52;;;;;;;32.25;5.00;;;;;;;10.39;100.00;101001.28;5037296;28;20083;-72
2022/01/03 00:46:18;;;;;;;31.00;5.40;;;;;;;10.33;100.00;101016.13;5034965;28;20075;-72
2022/01/03 00:48:44;;;;;;;47.40;5.30;;;;;;;10.30;100.00;101006.63;5033045;28;20839;-72
2022/01/03 00:51:13;;;;;;;27.65;4.63;;;;;;;10.27;100.00;101007.22;5014957;28;20037;-72
2022/01/03 00:53:39;;;;;;;36.63;5.40;;;;;;;10.28;100.00;101011.53;5031558;28;20037;-72
2022/01/03 00:56:12;;;;;;;29.13;4.40;;;;;;;10.22;100.00;101007.25;5034100;28;20103;-71
2022/01/03 00:58:52;;;;;;;38.83;5.63;;;;;;;10.20;100.00;101004.81;5034502;28;20071;-72
2022/01/03 01:01:20;;;;;;;30.55;5.57;;;;;;;10.28;100.00;101008.81;5018798;28;20056;-72
2022/01/03 01:03:51;;;;;;;26.75;5.10;;;;;;;10.29;100.00;101007.69;5017107;28;20209;-74
2022/01/03 01:06:20;;;;;;;35.42;5.55;;;;;;;10.29;100.00;101004.97;5014556;28;20075;-72
2022/01/03 01:08:48;;;;;;;31.35;5.70;;;;;;;10.32;100.00;101009.84;5014815;28;20853;-72
2022/01/03 01:11:15;;;;;;;26.35;6.13;;;;;;;10.23;100.00;101008.88;5015919;28;20045;-73
2022/01/03 01:13:43;;;;;;;33.30;5.28;;;;;;;10.32;100.00;101012.56;5015277;28;20122;-71
2022/01/03 01:16:11;;;;;;;34.20;6.10;;;;;;;10.29;100.00;101010.44;5015178;28;20061;-72
2022/01/03 01:18:45;;;;;;;37.45;6.05;;;;;;;10.23;100.00;101027.94;5015512;28;20425;-72
2022/01/03 01:21:11;;;;;;;34.63;5.43;;;;;;;10.29;100.00;101021.34;4998548;28;20103;-73
2022/01/03 01:23:40;;;;;;;37.13;5.93;;;;;;;10.34;100.00;101023.19;5016105;28;20038;-73
2022/01/03 01:28:50;;;;;;;29.65;6.28;;;;;;;10.28;100.00;101030.63;5016799;28;20481;-71
2022/01/03 01:31:20;;;;;;;27.63;5.43;;;;;;;10.23;100.00;101029.88;5016284;28;20036;-73
2022/01/03 01:33:47;;;;;;;29.23;5.13;;;;;;;10.29;100.00;101032.22;5013868;28;20041;-71
2022/01/03 01:36:14;;;;;;;29.45;5.13;;;;;;;10.35;100.00;101035.69;5013670;28;20046;-72
2022/01/03 01:38:40;;;;;;;27.80;6.32;;;;;;;10.33;100.00;101027.81;5014631;28;20086;-72
2022/01/03 01:41:08;;;;;;;22.85;4.95;;;;;;;10.26;100.00;101021.91;5014237;28;20033;-72
2022/01/03 01:43:41;;;;;;;42.45;5.78;;;;;;;10.21;100.00;101022.00;5014556;28;20504;-71
2022/01/03 01:46:20;;;;;;;29.75;5.30;;;;;;;10.13;100.00;101022.66;5014015;28;20912;-72
2022/01/03 01:48:51;;;;;;;30.70;6.78;;;;;;;10.10;100.00;101012.34;5017803;28;20033;-72
2022/01/03 01:51:22;;;;;;;25.08;6.07;;;;;;;10.09;100.00;101002.53;5016965;28;20033;-73
2022/01/03 01:53:55;;;;;;;39.10;6.10;;;;;;;10.04;100.00;101016.28;5034141;28;20072;-72
2022/01/03 01:56:37;;;;;;;29.00;5.65;;;;;;;10.12;100.00;101018.31;5033425;28;20512;-73
2022/01/03 01:59:18;;;;;;;34.20;6.03;;;;;;;10.07;100.00;101016.47;5017855;28;20060;-72
2022/01/03 02:02:21;;;;;;;30.35;4.22;;;;;;;10.08;100.00;101022.72;5032693;28;20048;-73
2022/01/03 02:05:08;;;;;;;34.63;5.10;;;;;;;10.06;100.00;101024.94;5002770;28;20073;-72
2022/01/03 02:07:48;;;;;;;31.40;5.35;;;;;;;10.10;100.00;101012.34;5013878;28;20034;-72
2022/01/03 02:10:15;;;;;;;33.42;5.00;;;;;;;10.04;100.00;101029.91;5012926;28;20041;-72
2022/01/03 02:12:46;;;;;;;27.90;5.25;;;;;;;10.12;100.00;101029.19;5012970;28;20414;-72
2022/01/03 02:15:15;;;;;;;32.92;5.43;;;;;;;10.09;100.00;101037.97;5015557;28;20037;-73
2022/01/03 02:17:44;;;;;;;29.80;5.63;;;;;;;10.16;100.00;101022.06;5013470;28;20110;-72
2022/01/03 02:20:11;;;;;;;37.55;6.40;;;;;;;10.19;100.00;101037.81;5012627;28;20475;-74
2022/01/03 02:22:38;;;;;;;35.08;4.63;;;;;;;10.18;100.00;101028.00;4997399;28;20455;-72
2022/01/03 02:25:09;;;;;;;26.48;5.68;;;;;;;10.20;100.00;101028.53;5012667;28;20410;-72
2022/01/03 02:27:35;;;;;;;29.38;5.60;;;;;;;10.21;100.00;101035.63;5012638;28;20988;-72
2022/01/03 02:30:02;;;;;;;26.90;4.72;;;;;;;10.21;100.00;101041.06;5000431;28;20038;-73
2022/01/03 02:32:27;;;;;;;38.03;6.97;;;;;;;10.17;100.00;101034.59;5013135;28;20342;-73
2022/01/03 02:34:53;;;;;;;37.30;5.85;;;;;;;10.24;100.00;101039.66;5012543;28;20045;-71
2022/01/03 02:37:27;;;;;;;28.63;5.40;;;;;;;10.17;100.00;101045.47;5012780;28;20146;-73
2022/01/03 02:39:55;;;;;;;31.63;7.25;;;;;;;10.24;100.00;101040.47;5014026;28;20636;-72
2022/01/03 02:42:24;;;;;;;28.73;5.40;;;;;;;10.24;100.00;101040.47;5012139;28;20397;-72
2022/01/03 02:45:08;;;;;;;21.58;5.13;;;;;;;10.28;100.00;101046.97;5012120;28;20152;-72
2022/01/03 02:47:34;;;;;;;36.47;5.68;;;;;;;10.28;100.00;101035.28;4995657;28;20068;-72
2022/01/03 02:50:01;;;;;;;46.72;6.53;;;;;;;10.23;100.00;101048.94;5024205;28;20074;-72
2022/01/03 02:52:26;;;;;;;26.65;5.03;;;;;;;10.24;100.00;101045.94;5013896;28;20303;-72
2022/01/03 02:54:53;;;;;;;29.98;5.80;;;;;;;10.24;100.00;101045.94;5016003;28;20061;-72
2022/01/03 02:57:23;;;;;;;34.78;5.90;;;;;;;10.23;100.00;101043.50;5012996;28;20029;-72
2022/01/03 02:59:58;;;;;;;42.75;5.72;;;;;;;10.11;100.00;101039.28;5012809;28;20179;-73
2022/01/03 03:02:25;;;;;;;36.20;5.47;;;;;;;10.01;100.00;101044.91;5025624;28;20049;-72
2022/01/03 03:04:54;;;;;;;31.88;6.78;;;;;;;10.10;100.00;101040.41;5015537;28;20038;-73
2022/01/03 03:07:22;;;;;;;37.97;6.25;;;;;;;10.04;100.00;101036.16;5015775;28;20040;-72
2022/01/03 03:09:48;;;;;;;29.88;5.80;;;;;;;10.07;100.00;101040.19;5028806;28;20635;-73
2022/01/03 03:12:14;;;;;;;34.70;5.57;;;;;;;10.14;100.00;101052.31;5024339;28;20424;-72
2022/01/03 03:14:40;;;;;;;24.30;4.47;;;;;;;10.17;100.00;101050.94;5018611;28;20132;-73
2022/01/03 03:17:05;;;;;;;30.88;5.15;;;;;;;10.15;100.00;101051.25;5019251;28;20041;-73
2022/01/03 03:19:31;;;;;;;37.40;5.60;;;;;;;10.12;100.00;101042.81;5018941;28;20037;-71
2022/01/03 03:21:57;;;;;;;28.95;5.32;;;;;;;10.15;100.00;101053.13;5001912;28;20379;-72
2022/01/03 03:24:22;;;;;;;35.67;6.68;;;;;;;10.14;100.00;101041.44;5018743;28;20033;-71
2022/01/03 03:26:48;;;;;;;41.20;5.70;;;;;;;10.10;100.00;101048.59;5018252;28;20049;-72
2022/01/03 03:29:14;;;;;;;31.58;6.22;;;;;;;10.09;100.00;101046.16;5019515;28;20037;-71
2022/01/03 03:31:39;;;;;;;35.13;5.43;;;;;;;10.09;100.00;101048.88;5019954;28;20494;-71
2022/01/03 03:34:05;;;;;;;36.75;6.53;;;;;;;10.14;100.00;101051.53;5004222;28;20498;-72
2022/01/03 03:36:31;;;;;;;33.08;6.10;;;;;;;10.12;100.00;101059.19;5022151;28;20042;-72
2022/01/03 03:38:57;;;;;;;29.65;6.47;;;;;;;10.11;100.00;101052.91;5025814;28;20130;-73
2022/01/03 03:41:23;;;;;;;36.78;5.35;;;;;;;10.10;100.00;101061.41;5024723;28;20064;-74
2022/01/03 03:43:52;;;;;;;21.73;5.47;;;;;;;10.11;100.00;101057.56;5025112;28;20103;-73
2022/01/03 03:46:18;;;;;;;30.77;5.80;;;;;;;10.14;100.00;101048.81;5024133;28;20057;-72
2022/01/03 03:48:43;;;;;;;37.67;5.70;;;;;;;10.08;100.00;101052.72;5028435;28;20452;-71
2022/01/03 03:51:13;;;;;;;31.67;6.25;;;;;;;10.06;100.00;101049.47;5042814;28;20037;-72
2022/01/03 03:53:38;;;;;;;40.92;7.25;;;;;;;10.08;100.00;101052.72;5042705;28;20037;-72
2022/01/03 03:56:04;;;;;;;35.70;6.95;;;;;;;10.10;100.00;101050.50;5042064;28;20095;-71
2022/01/03 03:58:32;;;;;;;30.67;5.57;;;;;;;10.05;100.00;101047.84;5040743;28;20102;-73
2022/01/03 04:00:58;;;;;;;30.73;6.22;;;;;;;10.13;100.00;101044.47;5036185;28;20567;-71
2022/01/03 04:03:23;;;;;;;35.53;6.28;;;;;;;10.17;100.00;101057.19;5019491;28;20167;-72
2022/01/03 04:05:49;;;;;;;35.33;6.03;;;;;;;10.10;100.00;101054.03;5013969;28;20491;-72
2022/01/03 04:08:14;;;;;;;31.70;6.78;;;;;;;10.09;100.00;101054.31;5015939;28;20471;-73
2022/01/03 04:10:39;;;;;;;28.65;6.72;;;;;;;10.07;100.00;101053.81;5012713;28;20569;-72
2022/01/03 04:13:05;;;;;;;30.10;6.28;;;;;;;10.08;100.00;101055.44;5013321;28;20102;-73
2022/01/03 04:15:30;;;;;;;36.33;6.28;;;;;;;10.11;100.00;101058.38;5014334;28;20042;-72
2022/01/03 04:17:56;;;;;;;29.05;6.18;;;;;;;10.09;100.00;101051.59;5012185;28;20041;-73
2022/01/03 04:20:22;;;;;;;38.58;6.75;;;;;;;10.14;100.00;101049.59;5011731;28;20218;-72
2022/01/03 04:22:48;;;;;;;29.23;6.20;;;;;;;10.14;100.00;101051.53;5011065;28;20029;-72
2022/01/03 04:25:15;;;;;;;45.30;6.20;;;;;;;10.17;100.00;101051.72;5013839;28;20036;-72
2022/01/03 04:27:41;;;;;;;35.13;6.25;;;;;;;10.06;100.00;101052.19;4999215;28;20240;-73
2022/01/03 04:30:08;;;;;;;31.42;6.40;;;;;;;10.16;100.00;101050.13;5014441;28;20041;-73
2022/01/03 04:32:33;;;;;;;27.83;6.15;;;;;;;10.08;100.00;101052.72;5017156;28;20041;-71
2022/01/03 04:35:00;;;;;;;35.00;6.65;;;;;;;10.08;100.00;101048.06;5015476;28;20043;-72
2022/01/03 04:37:26;;;;;;;39.88;6.68;;;;;;;10.05;100.00;101036.94;5015169;28;20042;-72
2022/01/03 04:39:51;;;;;;;38.42;6.65;;;;;;;10.09;100.00;101037.97;5014899;28;20033;-71
2022/01/03 04:42:16;;;;;;;41.03;6.47;;;;;;;10.16;100.00;101046.59;5016062;28;20041;-72
2022/01/03 04:44:43;;;;;;;46.17;7.60;;;;;;;10.11;100.00;101046.66;5015477;28;20080;-73
2022/01/03 04:47:09;;;;;;;48.45;7.88;;;;;;;10.14;100.00;101051.53;5016397;28;20114;-72
2022/01/03 04:49:35;;;;;;;26.83;7.22;;;;;;;10.18;100.00;101052.53;5010806;28;20478;-73
2022/01/03 04:52:01;;;;;;;36.92;7.10;;;;;;;10.16;100.00;101046.59;5036107;28;20064;-74
2022/01/03 04:54:28;;;;;;;48.13;6.95;;;;;;;10.12;100.00;101048.28;5037374;28;20535;-72
2022/01/03 04:56:58;;;;;;;35.38;8.20;;;;;;;10.13;100.00;101036.28;5025750;28;20056;-71
2022/01/03 04:59:24;;;;;;;38.47;7.30;;;;;;;10.12;100.00;101053.72;5020731;28;20038;-73
2022/01/03 05:01:51;;;;;;;40.80;7.63;;;;;;;10.18;100.00;101038.91;5019161;28;20569;-72
2022/01/03 05:04:16;;;;;;;31.92;6.47;;;;;;;10.13;100.00;101033.56;5015059;28;20044;-72
2022/01/03 05:06:41;;;;;;;37.00;7.75;;;;;;;10.13;100.00;101022.66;5005039;28;20487;-72
2022/01/03 05:09:07;;;;;;;31.35;7.13;;;;;;;10.13;100.00;101023.47;5018316;28;20033;-71
2022/01/03 05:11:33;;;;;;;37.33;7.68;;;;;;;10.09;100.00;101027.06;5016822;28;20045;-71
2022/01/03 05:13:59;;;;;;;32.38;7.68;;;;;;;10.13;100.00;101030.84;5016254;28;20111;-72
2022/01/03 05:16:24;;;;;;;43.25;7.57;;;;;;;10.14;100.00;101035.16;5015125;28;20036;-72
2022/01/03 05:18:50;;;;;;;47.33;6.35;;;;;;;10.05;100.00;101021.41;5025047;28;20054;-72
2022/01/03 05:21:15;;;;;;;30.30;6.07;;;;;;;10.06;100.00;101022.22;5033840;28;20444;-73
2022/01/03 05:23:43;;;;;;;33.10;6.25;;;;;;;10.11;100.00;101027.59;5017698;28;20130;-72
2022/01/03 05:26:10;;;;;;;44.85;8.10;;;;;;;10.15;100.00;101021.28;5017585;28;20041;-72
2022/01/03 05:28:35;;;;;;;39.67;8.25;;;;;;;10.15;100.00;101021.28;5014928;28;20654;-73
2022/01/03 05:31:01;;;;;;;38.55;6.63;;;;;;;10.16;100.00;101022.06;5020891;28;20367;-73
2022/01/03 05:33:28;;;;;;;39.17;6.70;;;;;;;10.13;100.00;101011.75;5027470;28;20118;-73
2022/01/03 05:35:54;;;;;;;38.22;6.32;;;;;;;10.08;100.00;101014.56;5012971;28;20762;-72
2022/01/03 05:38:19;;;;;;;44.35;7.65;;;;;;;10.14;100.00;101018.81;5021433;28;20390;-73
2022/01/03 05:40:45;;;;;;;39.13;6.90;;;;;;;10.16;100.00;101013.91;5033920;28;20135;-72
2022/01/03 05:43:10;;;;;;;41.22;7.22;;;;;;;10.13;100.00;101012.56;5035502;28;20413;-73
2022/01/03 05:45:37;;;;;;;30.05;6.70;;;;;;;10.07;100.00;101012.97;5033443;28;20152;-73
2022/01/03 05:48:05;;;;;;;51.25;7.00;;;;;;;10.18;100.00;101006.22;5033613;28;20619;-73
2022/01/03 05:50:30;;;;;;;39.75;7.95;;;;;;;10.18;100.00;101015.22;5014498;28;20509;-73
2022/01/03 05:52:56;;;;;;;40.20;7.90;;;;;;;10.10;100.00;101012.34;5022256;28;20289;-73
2022/01/03 05:55:21;;;;;;;36.95;6.35;;;;;;;10.11;100.00;101003.88;5032538;28;20064;-72
2022/01/03 05:57:47;;;;;;;23.38;6.28;;;;;;;10.15;100.00;101006.81;5032576;28;20028;-71
2022/01/03 06:00:19;;;;;;;38.05;7.45;;;;;;;10.13;100.00;100995.41;5032833;28;20044;-72
2022/01/03 06:02:45;;;;;;;38.42;8.07;;;;;;;10.16;100.00;101009.25;5031841;28;20323;-72
2022/01/03 06:05:20;;;;;;;33.20;6.03;;;;;;;10.14;100.00;101008.72;5014723;28;20521;-73
2022/01/03 06:07:46;;;;;;;32.20;7.15;;;;;;;10.16;100.00;101008.44;5014001;28;20533;-72
2022/01/03 06:10:17;;;;;;;36.50;6.82;;;;;;;10.07;100.00;101002.06;5029154;28;20041;-72
2022/01/03 06:12:45;;;;;;;30.52;7.25;;;;;;;10.16;100.00;101000.28;5032192;28;20355;-73
2022/01/03 06:15:13;;;;;;;29.48;6.53;;;;;;;10.11;100.00;101003.06;5030887;28;20040;-73
2022/01/03 06:17:40;;;;;;;32.70;7.15;;;;;;;10.07;100.00;100991.16;5023625;28;20037;-72
2022/01/03 06:20:07;;;;;;;29.15;6.80;;;;;;;10.21;100.00;100989.28;4995785;28;20087;-73
2022/01/03 06:22:32;;;;;;;35.58;7.43;;;;;;;10.13;100.00;100984.50;5010745;28;20026;-72
2022/01/03 06:24:59;;;;;;;39.90;7.93;;;;;;;10.12;100.00;100991.06;5017692;28;20497;-73
2022/01/03 06:27:25;;;;;;;42.78;7.10;;;;;;;10.12;100.00;100988.31;5014642;28;20048;-73
2022/01/03 06:29:52;;;;;;;28.45;6.53;;;;;;;10.18;100.00;100981.69;5011693;28;20394;-73
2022/01/03 06:32:17;;;;;;;45.17;9.00;;;;;;;10.09;100.00;100980.75;5014640;28;20045;-72
2022/01/03 06:34:42;;;;;;;38.92;7.07;;;;;;;10.06;100.00;100978.63;5014308;28;20080;-72
2022/01/03 06:37:08;;;;;;;38.17;7.75;;;;;;;10.06;100.00;100973.16;5011603;28;20047;-73
2022/01/03 06:39:45;;;;;;;35.90;7.15;;;;;;;10.05;100.00;100971.56;5011940;28;20033;-73
2022/01/03 06:42:12;;;;;;;48.00;8.05;;;;;;;10.04;100.00;100969.97;5012361;28;20029;-71
2022/01/03 06:44:37;;;;;;;29.00;7.20;;;;;;;10.07;100.00;100972.09;5014603;28;20041;-72
2022/01/03 06:47:04;;;;;;;38.75;7.45;;;;;;;10.05;100.00;100977.00;5013333;28;20364;-73
2022/01/03 06:49:29;;;;;;;35.85;7.15;;;;;;;10.03;100.00;100965.59;5022310;28;20258;-74
2022/01/03 06:51:55;;;;;;;43.50;7.03;;;;;;;10.02;100.00;100962.06;5031536;28;20075;-72
2022/01/03 06:54:20;;;;;;;27.98;5.80;;;;;;;10.04;100.00;100975.41;5032614;28;20041;-72
2022/01/03 06:56:52;;;;;;;40.07;7.67;;;;;;;10.02;100.00;100963.97;5031542;28;20134;-72
2022/01/03 06:59:18;;;;;;;46.85;8.48;;;;;;;9.98;100.00;100961.84;5033779;28;20482;-72
2022/01/03 07:01:44;;;;;;;34.45;7.07;;;;;;;10.04;100.00;100980.84;5033667;28;20554;-73
2022/01/03 07:04:09;;;;;;;31.42;6.78;;;;;;;10.09;100.00;100978.03;5031794;28;20044;-72
2022/01/03 07:06:36;;;;;;;26.38;6.53;;;;;;;10.01;100.00;100976.00;5034565;28;20040;-73
2022/01/03 07:09:05;;;;;;;38.25;7.88;;;;;;;10.09;100.00;100972.56;5033190;28;20037;-73
2022/01/03 07:11:31;;;;;;;39.55;6.97;;;;;;;10.05;100.00;100974.28;5033427;28;20364;-73
2022/01/03 07:18:55;;;;;;;32.28;7.38;;;;;;;10.10;100.00;100969.56;5033274;28;20048;-73
2022/01/03 07:19:26;;;;;;;30.85;7.10;;;;;;;10.11;100.00;100959.47;5031214;28;20036;-73
2022/01/03 07:21:53;;;;;;;23.30;6.43;;;;;;;10.15;100.00;100971.38;5032745;28;20056;-71
2022/01/03 07:24:18;;;;;;;34.28;6.78;;;;;;;10.09;100.00;100967.13;5030410;28;20041;-72
2022/01/03 07:26:43;;;;;;;37.50;6.88;;;;;;;10.10;100.00;100969.56;5033058;28;20086;-73
2022/01/03 07:29:09;;;;;;;38.47;7.90;;;;;;;10.18;100.00;100968.06;5033077;28;20544;-72
2022/01/03 07:31:34;;;;;;;27.13;5.97;;;;;;;10.10;100.00;100966.03;5032845;28;20098;-72
2022/01/03 07:34:00;;;;;;;32.75;6.85;;;;;;;10.12;100.00;100969.25;5031270;28;20045;-73
2022/01/03 07:36:27;;;;;;;24.50;5.63;;;;;;;10.12;100.00;100956.47;5033666;28;20083;-73
2022/01/03 07:38:52;;;;;;;35.45;5.90;;;;;;;10.07;100.00;100947.56;5033421;28;20576;-72
2022/01/03 07:41:18;;;;;;;29.17;5.70;;;;;;;10.09;100.00;100939.88;5033262;28;20044;-72
2022/01/03 07:43:44;;;;;;;23.60;5.63;;;;;;;10.08;100.00;100944.53;5031150;28;20278;-72
2022/01/03 07:46:10;;;;;;;32.08;5.57;;;;;;;10.15;100.00;100949.59;5032634;28;20450;-73
2022/01/03 07:48:35;;;;;;;22.85;5.70;;;;;;;10.08;100.00;100954.63;5030358;28;20045;-72
2022/01/03 07:51:01;;;;;;;37.83;6.72;;;;;;;10.06;100.00;100956.81;5013470;28;20604;-73
2022/01/03 07:53:27;;;;;;;26.60;6.35;;;;;;;10.09;100.00;100961.69;5027246;28;20044;-73
2022/01/03 07:55:52;;;;;;;29.95;7.03;;;;;;;10.08;100.00;100973.69;5031611;28;20060;-73
2022/01/03 07:58:18;;;;;;;32.83;6.40;;;;;;;10.11;100.00;100984.00;5032517;28;20043;-73
2022/01/03 08:00:45;;;;;;;26.50;6.10;;;;;;;10.09;100.00;100989.72;5036321;28;20442;-73
2022/01/03 08:03:11;;;;;;;32.55;5.68;;;;;;;10.05;100.00;100982.47;5036556;28;20540;-73
2022/01/03 08:05:36;;;;;;;21.30;5.63;;;;;;;10.03;100.00;100990.13;5037169;28;20396;-73
2022/01/03 08:08:03;;;;;;;30.85;6.60;;;;;;;10.03;100.00;100977.28;5037456;28;20486;-74
2022/01/03 08:10:29;;;;;;;45.63;7.50;;;;;;;10.06;100.00;100978.63;5037507;28;20044;-73
2022/01/03 08:12:54;;;;;;;29.40;6.15;;;;;;;10.08;100.00;100987.31;5035790;28;20115;-73
2022/01/03 08:15:20;;;;;;;28.90;5.28;;;;;;;10.02;100.00;100983.06;5036442;28;20053;-72
2022/01/03 08:17:46;;;;;;;50.40;8.73;;;;;;;10.18;100.00;100987.13;5038862;28;20049;-72
2022/01/03 08:20:12;;;;;;;25.10;7.03;;;;;;;10.06;100.00;100986.78;5044760;28;20043;-73
2022/01/03 08:22:37;;;;;;;34.38;6.80;;;;;;;10.09;100.00;100988.91;5045110;28;20041;-73
2022/01/03 08:25:03;;;;;;;33.40;5.70;;;;;;;10.12;100.00;100991.06;5044666;28;20041;-74
2022/01/03 08:27:28;;;;;;;29.38;5.43;;;;;;;10.13;100.00;100995.41;5043122;28;20063;-72
2022/01/03 08:29:54;;;;;;;43.70;6.65;;;;;;;10.14;100.00;100994.31;5046923;28;20082;-73
2022/01/03 08:32:19;;;;;;;24.10;5.63;;;;;;;10.13;100.00;100990.78;5049432;28;20480;-73
2022/01/03 08:34:45;;;;;;;36.70;6.10;;;;;;;10.08;100.00;100992.75;5049526;28;20478;-72
2022/01/03 08:37:10;;;;;;;23.08;5.38;;;;;;;10.03;100.00;100998.28;5048696;28;20055;-72
2022/01/03 08:39:36;;;;;;;36.05;6.07;;;;;;;10.03;100.00;100985.47;5046332;28;20020;-72
2022/01/03 08:42:02;;;;;;;33.35;5.18;;;;;;;10.06;100.00;100994.97;5031107;28;20102;-72
2022/01/03 08:44:28;;;;;;;21.10;5.32;;;;;;;10.13;100.00;100979.06;5042316;28;20141;-74
2022/01/03 08:46:53;;;;;;;35.50;5.78;;;;;;;10.13;100.00;100979.06;5048382;28;20087;-72
2022/01/03 08:49:19;;;;;;;27.85;5.13;;;;;;;10.17;100.00;100985.53;5039042;28;20486;-72
2022/01/03 08:51:44;;;;;;;30.38;6.30;;;;;;;10.14;100.00;100980.69;5028092;28;20358;-73
2022/01/03 08:54:10;;;;;;;28.45;5.30;;;;;;;10.12;100.00;100982.88;5045966;28;20049;-72
2022/01/03 08:56:37;;;;;;;27.20;5.80;;;;;;;10.01;100.00;100986.91;5047431;28;20045;-72
2022/01/03 08:59:03;;;;;;;34.10;6.63;;;;;;;10.02;100.00;100978.41;5045640;28;20052;-72
2022/01/03 09:01:28;;;;;;;20.85;5.55;;;;;;;9.96;100.00;100979.59;5044915;28;20056;-73
2022/01/03 09:03:54;;;;;;;23.33;5.68;;;;;;;10.06;100.00;100978.63;5023379;28;20136;-71
2022/01/03 09:06:20;;;;;;;28.20;5.95;;;;;;;9.96;100.00;100969.50;5022611;28;20045;-72
2022/01/03 09:08:46;;;;;;;20.52;5.07;;;;;;;9.95;100.00;100970.63;5021911;28;20041;-72
2022/01/03 09:11:12;;;;;;;26.90;5.65;;;;;;;10.00;100.00;100974.34;5018740;28;20390;-72
2022/01/03 09:13:37;;;;;;;27.20;5.88;;;;;;;10.17;100.00;100980.06;5018260;28;20046;-71
2022/01/03 09:16:07;;;;;;;30.45;5.78;;;;;;;10.20;100.00;100974.84;5017298;28;20037;-71
2022/01/03 09:18:35;;;;;;;28.55;5.72;;;;;;;10.39;100.00;100977.56;5018437;28;20431;-72
2022/01/03 09:21:00;;;;;;;29.63;5.38;;;;;;;10.60;100.00;100982.66;5015424;28;20037;-73
2022/01/03 09:23:30;;;;;;;24.50;6.50;;;;;;;10.44;100.00;100984.81;5016463;28;20052;-72
2022/01/03 09:28:51;;;;;;;28.27;4.57;;;;;;;10.46;100.00;100981.81;5015845;28;20409;-73
2022/01/03 09:31:28;;;;;;;26.75;5.82;;;;;;;10.49;100.00;100973.03;5015918;28;20048;-72
2022/01/03 09:33:57;;;;;;;31.65;6.95;;;;;;;10.47;100.00;100972.53;5016259;28;20179;-72
2022/01/03 09:36:24;;;;;;;27.88;6.10;;;;;;;10.47;100.00;100983.44;5015687;28;20775;-71
2022/01/03 09:38:50;;;;;;;25.90;5.85;;;;;;;10.56;100.00;100971.53;5016396;28;20418;-72
2022/01/03 09:41:19;;;;;;;27.58;6.32;;;;;;;10.46;100.00;100970.91;5015777;28;20049;-72
2022/01/03 09:43:51;;;;;;;16.13;5.30;;;;;;;10.32;100.00;100971.66;5015898;28;20473;-70
2022/01/03 09:46:21;;;;;;;;;;;;;;;10.42;100.00;100971.50;5015583;28;20713;-73
2022/01/03 09:48:52;;;;;;;33.22;6.35;;;;;;;10.41;100.00;100969.91;5019169;28;20084;-71
2022/01/03 09:51:19;;;;;;;28.45;6.28;;;;;;;10.25;100.00;100970.44;5033375;28;20478;-74
2022/01/03 09:53:46;;;;;;;26.30;5.68;;;;;;;10.24;100.00;100980.53;5034390;28;20599;-72
2022/01/03 09:56:11;;;;;;;21.63;5.57;;;;;;;10.42;100.00;100971.50;5034184;28;20267;-72
2022/01/03 09:58:37;;;;;;;29.50;5.50;;;;;;;10.41;100.00;100969.91;5033857;28;20446;-73
2022/01/03 10:01:03;;;;;;;27.17;6.63;;;;;;;10.31;100.00;100964.63;5034981;28;20862;-74
2022/01/03 10:03:28;;;;;;;29.10;6.43;;;;;;;10.35;100.00;100960.16;5018573;28;20077;-73
2022/01/03 10:05:55;;;;;;;27.60;6.13;;;;;;;10.33;100.00;100962.41;5014731;28;20037;-71
2022/01/03 10:08:21;;;;;;;31.58;7.20;;;;;;;10.41;100.00;100964.44;5012495;28;20463;-72
2022/01/03 10:10:47;;;;;;;27.80;7.35;;;;;;;10.51;100.00;100946.28;5013418;28;20474;-72
2022/01/03 10:13:14;;;;;;;30.40;6.10;;;;;;;10.36;100.00;100948.19;5014729;28;20140;-72
2022/01/03 10:15:41;;;;;;;28.05;6.68;;;;;;;10.58;100.00;100946.69;5014448;28;20048;-72
2022/01/03 10:18:06;;;;;;;31.02;8.30;;;;;;;10.35;100.00;100948.47;5014457;28;20044;-73
2022/01/03 10:20:39;;;;;;;33.83;8.10;;;;;;;10.40;100.00;100949.19;5014529;28;20651;-74
2022/01/03 10:23:14;;;;;;;28.85;6.40;;;;;;;10.43;100.00;100954.03;5012751;28;20132;-74
2022/01/03 10:25:41;;;;;;;29.67;6.07;;;;;;;10.42;100.00;100948.91;5014357;28;20053;-72
2022/01/03 10:28:06;;;;;;;33.97;6.85;;;;;;;10.37;100.00;100947.06;5015477;28;20119;-73
2022/01/03 10:30:35;;;;;;;33.33;7.28;;;;;;;10.61;100.00;100957.00;5012883;28;20042;-73
2022/01/03 10:33:03;;;;;;;30.00;5.72;;;;;;;10.61;100.00;100951.53;5016329;28;20481;-71
2022/01/03 10:35:37;;;;;;;20.70;5.55;;;;;;;10.59;100.00;100956.50;5015949;28;20096;-72
2022/01/03 10:38:02;;;;;;;28.08;6.63;;;;;;;10.43;100.00;100945.84;5012351;28;20132;-73
2022/01/03 10:40:29;;;;;;;30.70;6.82;;;;;;;10.40;100.00;100935.56;5014297;28;20045;-73
2022/01/03 10:42:57;;;;;;;29.05;6.13;;;;;;;10.42;100.00;100938.00;5014426;28;20463;-72
2022/01/03 10:45:33;;;;;;;32.13;7.65;;;;;;;10.63;100.00;100931.03;5014336;28;20068;-73
2022/01/03 10:48:00;;;;;;;31.60;6.05;;;;;;;10.48;100.00;100944.16;5014084;28;20045;-73
2022/01/03 10:50:27;;;;;;;34.17;6.32;;;;;;;10.72;100.00;100939.34;5014896;28;20368;-72
2022/01/03 10:52:53;;;;;;;30.42;6.25;;;;;;;10.86;100.00;100942.88;5019996;28;20505;-72
2022/01/03 10:55:34;;;;;;;31.88;6.45;;;;;;;11.07;100.00;100931.56;5015229;28;20144;-72
2022/01/03 10:58:03;;;;;;;33.58;6.55;;;;;;;11.20;100.00;100936.19;5010848;28;20138;-72
2022/01/03 11:00:30;;;;;;;21.67;5.63;;;;;;;11.52;100.00;100942.63;5013085;28;20045;-71
2022/01/03 11:03:27;;;;;;;20.73;5.57;;;;;;;11.18;100.00;100927.50;5023737;28;20123;-72
2022/01/03 11:05:58;;;;;;;30.48;8.07;;;;;;;11.11;100.00;100938.00;5032556;28;20483;-72
2022/01/03 11:11:12;;;;;;;30.02;7.35;;;;;;;10.92;100.00;100932.69;5033544;28;20435;-74
2022/01/03 11:13:43;;;;;;;30.40;7.43;;;;;;;10.78;100.00;100927.22;5033919;28;20032;-72
2022/01/03 11:16:10;;;;;;;24.38;7.05;;;;;;;10.68;100.00;100913.78;5033030;28;20071;-72
2022/01/03 11:18:43;;;;;;;27.48;7.05;;;;;;;10.68;100.00;100911.06;5033274;28;20045;-73
2022/01/03 11:21:14;;;;;;;26.50;6.28;;;;;;;10.65;100.00;100904.28;5033807;28;20143;-72
2022/01/03 11:24:04;;;;;;;24.15;6.63;;;;;;;10.59;100.00;100901.97;5024820;28;20037;-71